Time;durP1;ratioP1;P1;durP2;ratioP2;P2;SDS_P1;SDS_P2;PMS_P1;PMS_P2;Temp;Humidity;BMP_temperature;BMP_pressure;BME280_temperature;BME280_humidity;BME280_pressure;Samples;Min_cycle;Max_cycle;Signal;HPM_P1;HPM_P2
2021/07/19 00:01:45;;;;;;;5.22;3.53;;;;;;;23.15;55.15;102391.16;4960812;28;20041;-72
2021/07/19 00:04:10;;;;;;;4.55;3.45;;;;;;;23.15;55.40;102396.44;4976815;28;20041;-72
2021/07/19 00:06:36;;;;;;;3.67;3.20;;;;;;;23.14;55.11;102396.41;4959407;28;20077;-72
2021/07/19 00:09:01;;;;;;;6.47;3.67;;;;;;;23.14;55.39;102399.06;4977824;28;20039;-73
2021/07/19 00:11:27;;;;;;;5.70;3.47;;;;;;;23.13;55.59;102402.56;4977985;28;20035;-73
2021/07/19 00:13:52;;;;;;;5.78;4.25;;;;;;;23.14;55.55;102421.06;4961311;28;20042;-72
2021/07/19 00:16:18;;;;;;;4.63;3.97;;;;;;;23.13;55.25;102408.72;4963831;28;20141;-71
2021/07/19 00:18:43;;;;;;;4.00;3.58;;;;;;;23.15;55.45;102414.91;4984475;28;20045;-72
2021/07/19 00:21:08;;;;;;;7.25;3.45;;;;;;;23.12;55.23;102414.88;4984437;28;20037;-72
2021/07/19 00:23:34;;;;;;;6.40;3.30;;;;;;;23.12;55.38;102414.88;4960859;28;20073;-72
2021/07/19 00:25:59;;;;;;;4.85;3.17;;;;;;;23.10;55.53;102410.50;4960120;28;20126;-73
2021/07/19 00:28:25;;;;;;;3.85;3.45;;;;;;;23.13;55.47;102416.66;4961244;28;19957;-75
2021/07/19 00:30:50;;;;;;;4.88;3.67;;;;;;;23.15;55.15;102422.81;4977170;28;20034;-75
2021/07/19 00:33:16;;;;;;;4.15;3.35;;;;;;;23.11;54.96;102409.59;4946291;28;20054;-75
2021/07/19 00:35:41;;;;;;;5.65;3.88;;;;;;;23.14;55.23;102407.84;4959640;28;20051;-75
2021/07/19 00:38:07;;;;;;;6.10;4.20;;;;;;;23.13;54.98;102408.72;4976446;28;20508;-75
2021/07/19 00:40:35;;;;;;;4.75;3.55;;;;;;;23.14;55.28;102412.25;4975240;28;20030;-75
2021/07/19 00:43:01;;;;;;;6.60;3.35;;;;;;;23.13;55.03;102415.78;4976369;28;20035;-76
2021/07/19 00:45:28;;;;;;;5.05;3.33;;;;;;;23.14;55.15;102414.91;4976309;28;20105;-75
2021/07/19 00:47:56;;;;;;;5.10;3.95;;;;;;;23.11;55.11;102407.84;4976419;28;20034;-75
2021/07/19 00:50:22;;;;;;;4.10;3.50;;;;;;;23.12;55.16;102406.97;4976232;28;20093;-75
2021/07/19 00:52:48;;;;;;;4.18;3.53;;;;;;;23.13;55.23;102413.13;4976090;28;20597;-75
2021/07/19 00:55:15;;;;;;;6.60;3.63;;;;;;;23.12;55.09;102401.69;4975860;28;20055;-75
2021/07/19 00:57:48;;;;;;;4.82;3.55;;;;;;;23.12;55.19;102403.44;4976077;28;20027;-75
2021/07/19 01:00:15;;;;;;;5.80;4.17;;;;;;;23.13;55.19;102392.03;4977029;28;20535;-75
2021/07/19 01:02:49;;;;;;;3.70;2.78;;;;;;;23.12;55.14;102377.06;4977964;28;20126;-75
2021/07/19 01:05:16;;;;;;;5.03;3.53;;;;;;;23.10;55.20;102373.56;4976963;28;20501;-75
2021/07/19 01:07:43;;;;;;;5.85;4.03;;;;;;;23.11;55.14;102389.38;4977323;28;20031;-75
2021/07/19 01:10:16;;;;;;;4.90;3.70;;;;;;;23.12;55.02;102388.50;4978610;28;20027;-75
2021/07/19 01:12:50;;;;;;;5.15;4.13;;;;;;;23.11;55.24;102381.47;4977603;28;20034;-75
2021/07/19 01:15:16;;;;;;;3.75;3.30;;;;;;;23.12;55.24;102384.97;4977209;28;20110;-75
2021/07/19 01:17:42;;;;;;;4.00;2.88;;;;;;;23.09;55.22;102382.38;4976866;28;20038;-75
2021/07/19 01:20:09;;;;;;;5.15;3.42;;;;;;;23.11;55.20;102389.38;4976463;28;20505;-75
2021/07/19 01:22:43;;;;;;;4.05;3.60;;;;;;;23.11;54.96;102386.75;4978341;28;20470;-75
2021/07/19 01:25:33;;;;;;;3.80;3.40;;;;;;;23.10;55.11;102379.72;4977063;28;20066;-75
2021/07/19 01:28:01;;;;;;;11.65;5.22;;;;;;;23.10;55.21;102390.28;4978695;28;20037;-75
2021/07/19 01:30:29;;;;;;;5.70;3.80;;;;;;;23.11;55.06;102392.00;4977059;28;20049;-75
2021/07/19 01:32:59;;;;;;;5.30;4.40;;;;;;;23.11;55.10;102399.94;4978536;28;20133;-75
2021/07/19 01:35:25;;;;;;;4.53;3.75;;;;;;;23.09;55.05;102383.25;4960715;28;20019;-75
2021/07/19 01:37:51;;;;;;;5.13;3.67;;;;;;;23.08;54.99;102375.31;4961269;28;20037;-75
2021/07/19 01:40:17;;;;;;;6.18;4.13;;;;;;;23.10;55.03;102379.72;4977310;28;20031;-75
2021/07/19 01:42:44;;;;;;;6.50;4.25;;;;;;;23.08;55.02;102384.13;4978400;28;20035;-75
2021/07/19 01:45:11;;;;;;;5.55;4.43;;;;;;;23.06;55.12;102370.03;4978252;28;20113;-75
2021/07/19 01:47:38;;;;;;;5.07;3.80;;;;;;;23.05;55.03;102370.91;4978742;28;20038;-75
2021/07/19 01:50:06;;;;;;;4.35;3.42;;;;;;;23.10;54.91;102378.84;4945178;28;20493;-74
2021/07/19 01:52:31;;;;;;;5.00;3.85;;;;;;;23.09;54.85;102370.06;4978116;28;20034;-75
2021/07/19 01:54:58;;;;;;;6.20;3.90;;;;;;;23.07;54.96;102368.28;4978422;28;20369;-76
2021/07/19 01:57:24;;;;;;;4.88;3.25;;;;;;;23.09;54.95;102374.44;4978559;28;20058;-75
2021/07/19 01:59:50;;;;;;;5.45;3.92;;;;;;;23.06;55.04;102372.69;4977991;28;20094;-75
2021/07/19 02:02:20;;;;;;;4.95;3.53;;;;;;;23.04;55.05;102366.53;4978546;28;20038;-75
2021/07/19 02:04:45;;;;;;;4.82;4.13;;;;;;;23.07;55.06;102377.09;4961617;28;20049;-75
2021/07/19 02:07:13;;;;;;;5.53;3.60;;;;;;;23.05;55.03;102375.31;4978312;28;20039;-75
2021/07/19 02:09:39;;;;;;;5.85;4.07;;;;;;;23.06;55.05;102371.81;4960804;28;20023;-75
2021/07/19 02:12:07;;;;;;;4.70;3.55;;;;;;;23.06;54.98;102372.69;4977627;28;20034;-75
2021/07/19 02:14:33;;;;;;;5.63;4.22;;;;;;;23.07;55.27;102370.94;4977443;28;20015;-75
2021/07/19 02:17:00;;;;;;;4.38;3.75;;;;;;;23.05;55.21;102376.19;4959008;28;20033;-74
2021/07/19 02:19:28;;;;;;;5.07;4.15;;;;;;;23.05;55.08;102380.59;4959203;28;20441;-75
2021/07/19 02:21:54;;;;;;;6.60;4.15;;;;;;;23.04;54.97;102370.91;4958891;28;20474;-75
2021/07/19 02:24:23;;;;;;;4.93;3.22;;;;;;;23.08;55.01;102380.59;4958715;28;20037;-75
2021/07/19 02:26:49;;;;;;;5.13;4.25;;;;;;;23.04;55.16;102379.72;4959198;28;20027;-75
2021/07/19 02:29:16;;;;;;;4.97;3.85;;;;;;;23.06;55.17;102383.25;4976054;28;20038;-75
2021/07/19 02:31:42;;;;;;;7.40;4.43;;;;;;;23.06;54.92;102380.59;4942670;28;20043;-75
2021/07/19 02:34:08;;;;;;;5.30;4.25;;;;;;;23.06;55.08;102371.81;4971557;28;20378;-75
2021/07/19 02:36:35;;;;;;;7.47;4.00;;;;;;;23.08;55.06;102385.88;4977388;28;20089;-75
2021/07/19 02:39:00;;;;;;;5.97;4.40;;;;;;;23.06;55.14;102391.16;4995391;28;20030;-75
2021/07/19 02:41:28;;;;;;;5.95;4.65;;;;;;;23.07;55.20;102399.94;4978194;28;20034;-74
2021/07/19 02:43:56;;;;;;;6.60;3.65;;;;;;;23.03;55.13;102388.50;4979410;28;20041;-75
2021/07/19 02:46:27;;;;;;;4.03;3.63;;;;;;;23.03;55.11;102388.50;4979918;28;20034;-74
2021/07/19 02:48:57;;;;;;;7.15;4.22;;;;;;;22.98;55.05;102390.25;4980287;28;20377;-75
2021/07/19 02:51:26;;;;;;;6.18;4.20;;;;;;;23.02;55.04;102397.28;4978459;28;20026;-75
2021/07/19 02:53:52;;;;;;;5.03;4.30;;;;;;;23.04;54.82;102400.81;4999734;28;20061;-75
2021/07/19 02:56:20;;;;;;;5.70;3.92;;;;;;;23.04;54.89;102390.25;4983636;28;20124;-75
2021/07/19 02:58:46;;;;;;;4.93;3.83;;;;;;;23.04;54.86;102395.53;4982803;28;20034;-75
2021/07/19 03:01:15;;;;;;;4.43;3.92;;;;;;;23.03;54.92;102396.41;4983848;28;20052;-75
2021/07/19 03:03:42;;;;;;;5.15;3.92;;;;;;;23.05;54.86;102404.34;4983349;28;20022;-75
2021/07/19 03:06:11;;;;;;;5.70;4.75;;;;;;;23.04;54.93;102394.66;4983113;28;20453;-75
2021/07/19 03:08:40;;;;;;;5.53;4.32;;;;;;;23.04;54.91;102390.25;5000657;28;20026;-75
2021/07/19 03:11:10;;;;;;;5.65;3.55;;;;;;;23.02;55.03;102386.75;5000947;28;20081;-75
2021/07/19 03:13:37;;;;;;;8.23;4.03;;;;;;;23.04;55.16;102395.53;4983686;28;20044;-75
2021/07/19 03:16:05;;;;;;;5.30;4.40;;;;;;;23.01;55.12;102392.91;5001162;28;20037;-75
2021/07/19 03:18:32;;;;;;;6.43;4.63;;;;;;;23.02;54.96;102397.28;4983546;28;20061;-75
2021/07/19 03:20:59;;;;;;;5.63;4.45;;;;;;;23.03;55.08;102401.69;5001858;28;20038;-75
2021/07/19 03:23:28;;;;;;;5.80;4.35;;;;;;;23.00;54.88;102392.88;4984392;28;20035;-76
2021/07/19 03:25:54;;;;;;;5.75;4.55;;;;;;;23.03;54.90;102403.47;4983879;28;20029;-75
2021/07/19 03:28:20;;;;;;;4.80;4.28;;;;;;;23.01;55.01;102394.66;5002415;28;20026;-75
2021/07/19 03:30:49;;;;;;;7.00;3.65;;;;;;;23.02;55.02;102397.28;4967586;28;20404;-75
2021/07/19 03:33:14;;;;;;;4.78;3.83;;;;;;;23.02;55.17;102401.69;4982771;28;20042;-74
2021/07/19 03:35:41;;;;;;;5.78;4.13;;;;;;;23.02;54.97;102401.69;4999421;28;20121;-75
2021/07/19 03:38:07;;;;;;;4.45;3.83;;;;;;;23.01;55.04;102399.94;4999040;28;20042;-75
2021/07/19 03:40:35;;;;;;;4.72;4.25;;;;;;;23.02;54.97;102402.56;4981533;28;20092;-75
2021/07/19 03:43:01;;;;;;;5.22;4.10;;;;;;;23.00;55.07;102392.88;4998795;28;20031;-75
2021/07/19 03:45:28;;;;;;;6.15;3.90;;;;;;;23.02;54.81;102393.78;4981284;28;20472;-75
2021/07/19 03:47:55;;;;;;;5.75;3.95;;;;;;;23.02;55.05;102399.06;4998566;28;20384;-75
2021/07/19 03:50:21;;;;;;;7.50;4.75;;;;;;;22.99;54.93;102389.38;4964499;28;20046;-75
2021/07/19 03:52:47;;;;;;;6.95;4.32;;;;;;;23.00;55.07;102392.88;4998660;28;20113;-74
2021/07/19 03:55:15;;;;;;;6.57;4.30;;;;;;;23.00;54.94;102392.88;4998684;28;20077;-75
2021/07/19 03:57:41;;;;;;;5.75;5.25;;;;;;;23.01;54.95;102400.81;4980701;28;20026;-75
2021/07/19 04:00:12;;;;;;;4.53;3.95;;;;;;;23.01;54.80;102402.56;4998409;28;20034;-75
2021/07/19 04:02:39;;;;;;;5.45;4.43;;;;;;;23.01;55.07;102400.81;4997706;28;20362;-75
2021/07/19 04:05:08;;;;;;;5.70;4.70;;;;;;;22.99;54.89;102389.38;4979301;28;20041;-75
2021/07/19 04:07:38;;;;;;;5.57;4.97;;;;;;;23.01;54.81;102397.28;4964133;28;20042;-75
2021/07/19 04:10:09;;;;;;;5.10;4.20;;;;;;;23.02;55.03;102394.66;4997447;28;20029;-75
2021/07/19 04:12:35;;;;;;;5.90;4.50;;;;;;;23.02;54.96;102397.28;4963629;28;20037;-74
2021/07/19 04:15:03;;;;;;;5.78;4.30;;;;;;;23.00;54.76;102393.78;4996829;28;20136;-75
2021/07/19 04:17:30;;;;;;;6.25;4.80;;;;;;;23.02;54.84;102393.78;4963625;28;20121;-75
2021/07/19 04:19:56;;;;;;;6.63;4.30;;;;;;;23.01;54.93;102392.91;4997127;28;20038;-75
2021/07/19 04:22:23;;;;;;;7.05;4.95;;;;;;;23.01;54.78;102382.34;4996857;28;20384;-75
2021/07/19 04:24:49;;;;;;;4.55;3.90;;;;;;;23.01;55.01;102384.97;4996378;28;20077;-74
2021/07/19 04:27:15;;;;;;;7.38;4.47;;;;;;;23.05;55.15;102376.19;4996719;28;20500;-75
2021/07/19 04:29:40;;;;;;;5.38;4.00;;;;;;;23.07;55.09;102373.56;4978798;28;20034;-74
2021/07/19 04:32:07;;;;;;;5.43;4.10;;;;;;;23.09;55.04;102382.38;4962961;28;20512;-74
2021/07/19 04:34:35;;;;;;;7.90;4.38;;;;;;;23.12;55.14;102382.34;4982224;28;20061;-74
2021/07/19 04:37:02;;;;;;;4.45;4.05;;;;;;;23.12;55.09;102384.97;4979116;28;20090;-74
2021/07/19 04:39:28;;;;;;;4.55;3.80;;;;;;;23.10;55.29;102384.13;4979078;28;20031;-73
2021/07/19 04:41:54;;;;;;;5.68;4.68;;;;;;;23.13;55.33;102379.69;4977914;28;20529;-74
2021/07/19 04:44:19;;;;;;;6.28;5.13;;;;;;;23.13;55.29;102374.44;4960402;28;20094;-74
2021/07/19 04:46:45;;;;;;;9.23;4.28;;;;;;;23.15;55.38;102380.59;4977478;28;20071;-74
2021/07/19 04:49:10;;;;;;;5.18;4.20;;;;;;;23.14;55.34;102375.31;4976529;28;20045;-74
2021/07/19 04:51:36;;;;;;;5.18;4.38;;;;;;;23.16;55.46;102376.19;4959168;28;20065;-74
2021/07/19 04:54:05;;;;;;;8.05;5.57;;;;;;;23.17;55.54;102385.88;4976101;28;20027;-74
2021/07/19 04:56:32;;;;;;;5.22;4.72;;;;;;;23.17;55.56;102381.47;4958677;28;20030;-73
2021/07/19 04:59:00;;;;;;;9.63;4.90;;;;;;;23.17;55.69;102392.03;4958642;28;20062;-73
2021/07/19 05:01:28;;;;;;;7.38;3.83;;;;;;;23.16;55.58;102387.63;4975938;28;20041;-74
2021/07/19 05:03:55;;;;;;;7.88;4.78;;;;;;;23.17;55.41;102381.47;4958453;28;20031;-74
2021/07/19 05:06:26;;;;;;;6.70;4.15;;;;;;;23.15;55.67;102377.94;4958748;28;20090;-74
2021/07/19 05:08:52;;;;;;;5.95;4.25;;;;;;;23.16;55.38;102373.56;4958403;28;20031;-74
2021/07/19 05:11:21;;;;;;;5.63;4.22;;;;;;;23.17;55.51;102375.31;4975635;28;20031;-74
2021/07/19 05:13:47;;;;;;;4.57;4.05;;;;;;;23.16;55.46;102385.00;4975858;28;20022;-74
2021/07/19 05:16:13;;;;;;;5.53;3.83;;;;;;;23.16;55.73;102382.34;4958427;28;20035;-74
2021/07/19 05:18:40;;;;;;;6.55;4.15;;;;;;;23.14;55.85;102381.47;4975942;28;20085;-74
2021/07/19 05:21:06;;;;;;;5.97;4.30;;;;;;;23.13;55.56;102384.97;4958207;28;20026;-74
2021/07/19 05:23:31;;;;;;;5.40;4.38;;;;;;;23.14;55.71;102383.22;4958372;28;20439;-73
2021/07/19 05:25:57;;;;;;;6.32;3.75;;;;;;;23.17;55.35;102378.84;4957645;28;20038;-74
2021/07/19 05:28:22;;;;;;;6.82;4.68;;;;;;;23.16;55.31;102377.06;4975689;28;20037;-74
2021/07/19 05:30:50;;;;;;;7.38;5.22;;;;;;;23.14;55.69;102378.81;4975504;28;20022;-74
2021/07/19 05:33:18;;;;;;;5.68;3.83;;;;;;;23.17;55.50;102381.47;4975444;28;20042;-74
2021/07/19 05:35:44;;;;;;;5.93;3.95;;;;;;;23.21;55.05;102386.75;4975623;28;20038;-74
2021/07/19 05:38:09;;;;;;;9.43;4.30;;;;;;;23.27;54.86;102384.97;4958024;28;20046;-75
2021/07/19 05:40:36;;;;;;;7.50;4.32;;;;;;;23.14;54.39;102380.59;4975290;28;20031;-74
2021/07/19 05:43:02;;;;;;;7.15;4.80;;;;;;;22.59;53.88;102390.19;4958019;28;20066;-74
2021/07/19 05:45:27;;;;;;;8.90;4.03;;;;;;;22.36;54.15;102385.69;4957639;28;20124;-74
2021/07/19 05:47:54;;;;;;;7.47;4.20;;;;;;;22.08;54.80;102394.38;4974928;28;20026;-74
2021/07/19 05:50:19;;;;;;;5.18;4.28;;;;;;;22.11;54.82;102381.22;4975236;28;20055;-74
2021/07/19 05:52:45;;;;;;;4.93;3.97;;;;;;;22.18;54.57;102397.94;4957981;28;20050;-74
2021/07/19 05:55:11;;;;;;;10.35;4.57;;;;;;;22.02;55.26;102387.31;4975123;28;20374;-74
2021/07/19 05:57:37;;;;;;;7.78;4.53;;;;;;;21.84;55.52;102388.94;4975969;28;20499;-77
2021/07/19 06:00:15;;;;;;;10.45;4.70;;;;;;;21.66;55.82;102385.34;4958583;28;20118;-73
2021/07/19 06:02:41;;;;;;;7.05;4.65;;;;;;;21.79;55.86;102394.19;4957473;28;20031;-74
2021/07/19 06:05:07;;;;;;;9.32;4.70;;;;;;;21.87;55.56;102391.59;4974798;28;20477;-74
2021/07/19 06:07:33;;;;;;;6.38;4.32;;;;;;;21.94;55.07;102380.25;4957540;28;20031;-74
2021/07/19 06:10:00;;;;;;;9.90;5.70;;;;;;;21.88;55.39;102393.38;4974729;28;20027;-75
2021/07/19 06:12:25;;;;;;;9.23;4.70;;;;;;;22.02;54.92;102382.06;4974836;28;20114;-74
2021/07/19 06:14:51;;;;;;;7.78;4.97;;;;;;;21.94;55.62;102390.78;4975273;28;20542;-74
2021/07/19 06:17:16;;;;;;;7.85;4.53;;;;;;;22.00;55.38;102388.19;4958580;28;20100;-74
2021/07/19 06:19:42;;;;;;;8.15;4.50;;;;;;;22.21;54.80;102377.72;4975121;28;20038;-75
2021/07/19 06:22:10;;;;;;;10.70;6.35;;;;;;;22.29;54.97;102383.06;4957656;28;20496;-74
2021/07/19 06:24:36;;;;;;;7.40;4.18;;;;;;;22.28;54.83;102376.91;4975131;28;20030;-75
2021/07/19 06:27:02;;;;;;;9.30;4.68;;;;;;;22.25;54.34;102376.88;4958973;28;20094;-75
2021/07/19 06:29:27;;;;;;;7.18;4.22;;;;;;;22.20;54.35;102381.25;4962143;28;20117;-74
2021/07/19 06:31:53;;;;;;;8.50;4.88;;;;;;;22.11;54.35;102378.56;4961649;28;20095;-74
2021/07/19 06:34:18;;;;;;;11.65;5.93;;;;;;;22.14;54.24;102391.78;4957557;28;20054;-74
2021/07/19 06:36:43;;;;;;;10.95;4.70;;;;;;;22.16;54.03;102399.69;4998137;28;20112;-72
2021/07/19 06:39:09;;;;;;;5.45;3.97;;;;;;;21.95;53.71;102393.38;4997873;28;20130;-72
2021/07/19 06:41:34;;;;;;;7.03;4.07;;;;;;;21.60;54.26;102392.31;4997872;28;20022;-72
2021/07/19 06:44:00;;;;;;;7.88;3.65;;;;;;;21.81;53.67;102402.13;4997804;28;20122;-72
2021/07/19 06:46:25;;;;;;;6.88;4.00;;;;;;;21.48;54.25;102408.91;4980138;28;20057;-72
2021/07/19 06:48:51;;;;;;;6.72;4.68;;;;;;;21.51;54.19;102395.78;4980387;28;20085;-72
2021/07/19 06:51:17;;;;;;;6.88;5.05;;;;;;;21.53;54.92;102407.19;4980240;28;20117;-72
2021/07/19 06:53:42;;;;;;;10.50;4.85;;;;;;;21.41;55.24;102396.59;4980741;28;20038;-72
2021/07/19 06:56:08;;;;;;;7.47;4.05;;;;;;;21.61;55.23;102405.50;4980238;28;20038;-72
2021/07/19 06:58:33;;;;;;;9.95;5.03;;;;;;;21.64;55.05;102405.50;4980547;28;20418;-72
2021/07/19 07:00:59;;;;;;;6.75;3.97;;;;;;;21.53;55.59;102414.22;4980280;28;20088;-72
2021/07/19 07:03:24;;;;;;;9.13;4.78;;;;;;;21.61;55.16;102402.84;4981071;28;20074;-73
2021/07/19 07:05:49;;;;;;;13.95;5.15;;;;;;;21.52;55.52;102405.44;4980544;28;20034;-72
2021/07/19 07:08:15;;;;;;;9.45;4.82;;;;;;;21.53;55.41;102406.31;4981208;28;20030;-72
2021/07/19 07:10:40;;;;;;;6.07;4.00;;;;;;;21.58;55.62;102402.81;4998317;28;20109;-72
2021/07/19 07:13:09;;;;;;;7.80;5.10;;;;;;;21.47;55.74;102407.13;4980460;28;20027;-72
2021/07/19 07:15:39;;;;;;;11.32;5.68;;;;;;;21.51;55.56;102406.31;4980682;28;20021;-72
2021/07/19 07:18:09;;;;;;;9.50;4.47;;;;;;;21.63;55.53;102402.88;4980125;28;20093;-72
2021/07/19 07:20:35;;;;;;;10.48;4.80;;;;;;;21.57;54.90;102413.34;4979819;28;20030;-72
2021/07/19 07:23:00;;;;;;;8.65;4.75;;;;;;;21.45;55.48;102416.75;4997035;28;20023;-72
2021/07/19 07:25:26;;;;;;;9.32;5.50;;;;;;;21.51;54.74;102411.56;4997125;28;20112;-72
2021/07/19 07:27:52;;;;;;;6.72;4.47;;;;;;;21.61;54.66;102408.13;4963687;28;20027;-71
2021/07/19 07:30:17;;;;;;;5.97;3.97;;;;;;;21.67;54.35;102407.28;4996980;28;20057;-72
2021/07/19 07:32:43;;;;;;;8.80;4.00;;;;;;;21.69;53.88;102411.66;4997354;28;20027;-72
2021/07/19 07:35:09;;;;;;;7.85;4.10;;;;;;;21.64;53.95;102409.91;4978014;28;20039;-72
2021/07/19 07:37:37;;;;;;;7.45;4.28;;;;;;;21.40;54.46;102400.09;4977469;28;20034;-72
2021/07/19 07:40:03;;;;;;;;;;;;;;;21.49;54.37;102397.50;4959082;28;20037;-72
2021/07/19 07:42:29;;;;;;;7.25;4.45;;;;;;;21.50;54.48;102403.66;4977520;28;20119;-72
2021/07/19 07:44:55;;;;;;;9.30;5.15;;;;;;;21.37;54.80;102400.94;4944127;28;20034;-72
2021/07/19 07:47:20;;;;;;;8.05;4.55;;;;;;;21.31;55.02;102397.34;4960198;28;20027;-72
2021/07/19 07:49:47;;;;;;;;;;;;;;;21.57;54.61;102413.34;4960225;28;20081;-72
2021/07/19 07:52:13;;;;;;;;;;;;;;;21.44;55.11;102401.84;4960145;28;19902;-72
2021/07/19 07:54:38;;;;;;;8.35;5.80;;;;;;;21.51;55.09;102403.66;4960030;28;19914;-72
2021/07/19 07:57:03;;;;;;;;;;;;;;;21.31;56.03;102407.88;4977491;28;20039;-72
2021/07/19 07:59:29;;;;;;;;;;;;;;;21.40;55.99;102413.25;4943988;28;19918;-72
2021/07/19 08:01:54;;;;;;;;;;;;;;;21.49;55.70;102417.69;4977278;28;19998;-72
2021/07/19 08:04:20;;;;;;;;;;;;;;;21.36;55.73;102419.34;4977295;28;20292;-72
2021/07/19 08:06:45;;;;;;;;;;;;;;;21.44;55.72;102422.00;4944083;28;20415;-72
2021/07/19 08:09:11;;;;;;;;;;;;;;;21.41;55.48;102425.53;4959871;28;19914;-72
2021/07/19 08:11:36;;;;;;;7.25;4.82;;;;;;;21.15;56.20;102421.75;4959425;28;20368;-72
2021/07/19 08:14:01;;;;;;;10.57;4.93;;;;;;;21.38;55.91;102413.22;4943520;28;20038;-71
2021/07/19 08:16:27;;;;;;;6.07;4.68;;;;;;;21.37;56.05;102419.34;4959993;28;20037;-72
2021/07/19 08:18:52;;;;;;;6.85;5.15;;;;;;;21.28;56.57;102410.50;4943666;28;20031;-72
2021/07/19 08:21:18;;;;;;;10.82;5.38;;;;;;;21.16;57.25;102413.00;4976867;28;20035;-72
2021/07/19 08:23:43;;;;;;;7.13;4.95;;;;;;;21.39;56.65;102420.25;4959471;28;20027;-72
2021/07/19 08:26:11;;;;;;;8.75;4.90;;;;;;;21.41;56.41;102416.75;4959599;28;20109;-72
2021/07/19 08:28:37;;;;;;;7.47;4.55;;;;;;;21.49;56.15;102413.31;4977172;28;20035;-72
2021/07/19 08:31:02;;;;;;;7.45;4.72;;;;;;;21.41;56.64;102422.91;4976491;28;20141;-72
2021/07/19 08:33:28;;;;;;;7.15;5.28;;;;;;;21.29;57.52;102407.00;4945217;28;20057;-72
2021/07/19 08:35:53;;;;;;;9.37;4.80;;;;;;;21.21;57.24;102413.94;4976707;28;20440;-72
2021/07/19 08:38:19;;;;;;;7.20;4.65;;;;;;;21.24;56.55;102411.34;4975332;28;20039;-72
2021/07/19 08:40:48;;;;;;;10.50;4.50;;;;;;;21.47;56.02;102409.78;4959249;28;20054;-72
2021/07/19 08:43:14;;;;;;;;;;;;;;;21.46;55.58;102413.28;4976650;28;20074;-72
2021/07/19 08:45:39;;;;;;;;;;;;;;;21.16;56.33;102410.38;4976462;28;19918;-71
2021/07/19 08:48:05;;;;;;;5.93;4.53;;;;;;;21.12;56.21;102404.19;4976383;28;20008;-71
2021/07/19 08:50:30;;;;;;;7.65;5.15;;;;;;;21.23;56.15;102397.31;4974603;28;20302;-70
2021/07/19 08:52:56;;;;;;;;;;;;;;;21.35;55.96;102405.28;4976430;28;20041;-71
2021/07/19 08:55:23;;;;;;;11.48;5.00;;;;;;;21.15;56.05;102393.72;4976164;28;19960;-71
2021/07/19 08:57:49;;;;;;;8.57;5.70;;;;;;;21.16;55.84;102394.59;4974583;28;20393;-71
2021/07/19 09:00:16;;;;;;;10.38;5.35;;;;;;;21.06;56.06;102406.75;4975851;28;20035;-70
2021/07/19 09:02:42;;;;;;;7.28;5.72;;;;;;;21.12;55.54;102405.94;4975858;28;20035;-70
2021/07/19 09:05:08;;;;;;;5.53;4.70;;;;;;;20.94;55.59;102402.28;4974463;28;20085;-71
2021/07/19 09:07:35;;;;;;;11.57;5.10;;;;;;;20.84;55.30;102389.91;4975735;28;20031;-71
2021/07/19 09:10:01;;;;;;;11.15;5.40;;;;;;;20.97;54.86;102399.69;4975630;28;20022;-71
2021/07/19 09:12:38;;;;;;;6.75;4.68;;;;;;;21.32;54.52;102405.25;4975698;28;20393;-71
2021/07/19 09:15:05;;;;;;;7.63;5.50;;;;;;;21.14;55.21;102405.09;4975500;28;20377;-71
2021/07/19 09:17:30;;;;;;;7.70;5.18;;;;;;;21.12;55.51;102404.19;4975543;28;20034;-71
2021/07/19 09:19:57;;;;;;;6.38;5.13;;;;;;;21.21;55.29;102399.03;4975395;28;20492;-71
2021/07/19 09:22:33;;;;;;;13.25;6.93;;;;;;;21.07;55.92;102402.38;4958043;28;20137;-71
2021/07/19 09:25:14;;;;;;;9.13;6.00;;;;;;;21.10;55.82;102394.53;4975351;28;20104;-70
2021/07/19 09:28:06;;;;;;;9.73;6.03;;;;;;;20.83;55.29;102396.03;4975261;28;20023;-71
2021/07/19 09:30:45;;;;;;;6.63;5.25;;;;;;;21.00;55.14;102404.09;4975169;28;20490;-70
2021/07/19 09:33:18;;;;;;;7.38;5.38;;;;;;;21.11;54.26;102401.53;4974921;28;20077;-70
2021/07/19 09:35:50;;;;;;;14.48;7.53;;;;;;;21.15;54.55;102391.06;4976900;28;20081;-70
2021/07/19 09:38:17;;;;;;;7.15;5.60;;;;;;;21.14;54.82;102391.94;4977052;28;20108;-71
2021/07/19 09:40:46;;;;;;;8.50;5.72;;;;;;;21.06;55.14;102401.50;4994357;28;20385;-71
2021/07/19 09:43:23;;;;;;;9.32;6.25;;;;;;;21.08;55.01;102391.88;4994344;28;20022;-71
2021/07/19 09:46:04;;;;;;;11.38;5.57;;;;;;;21.19;54.59;102387.63;4994229;28;20022;-70
2021/07/19 09:48:30;;;;;;;8.20;5.90;;;;;;;21.24;54.12;102395.56;4994234;28;20045;-71
2021/07/19 09:50:57;;;;;;;9.35;6.88;;;;;;;21.21;54.03;102387.63;4994369;28;20027;-71
2021/07/19 09:53:33;;;;;;;12.45;6.50;;;;;;;21.16;53.90;102387.53;4994242;28;20117;-71
2021/07/19 09:56:20;;;;;;;8.80;6.10;;;;;;;21.14;54.07;102385.81;4976960;28;20019;-71
2021/07/19 09:58:50;;;;;;;10.10;7.00;;;;;;;21.01;54.04;102387.44;4976854;28;19918;-70
2021/07/19 10:01:36;;;;;;;12.75;6.90;;;;;;;20.86;54.63;102387.28;4994024;28;20253;-71
2021/07/19 10:04:15;;;;;;;10.68;7.90;;;;;;;20.96;54.64;102391.78;4993866;28;20413;-70
2021/07/19 10:06:41;;;;;;;12.85;7.00;;;;;;;20.91;54.89;102394.34;4976433;28;20384;-71
2021/07/19 10:09:11;;;;;;;10.82;7.22;;;;;;;20.92;54.78;102390.84;4994062;28;20038;-71
2021/07/19 10:11:41;;;;;;;8.23;6.57;;;;;;;21.09;54.28;102376.97;4993965;28;20444;-70
2021/07/19 10:14:07;;;;;;;8.45;6.47;;;;;;;21.02;54.78;102382.19;4994258;28;20049;-71
2021/07/19 10:16:34;;;;;;;11.68;8.10;;;;;;;21.01;54.93;102383.06;4994039;28;20381;-70
2021/07/19 10:19:01;;;;;;;9.95;7.82;;;;;;;21.02;54.57;102373.44;4976287;28;20130;-71
2021/07/19 10:21:31;;;;;;;11.10;6.97;;;;;;;21.14;53.74;102364.75;4993982;28;20484;-71
2021/07/19 10:24:04;;;;;;;10.70;6.13;;;;;;;21.34;52.96;102374.59;4976332;28;20030;-71
2021/07/19 10:26:31;;;;;;;9.70;6.20;;;;;;;21.51;52.45;102374.72;4993712;28;20026;-70
2021/07/19 10:28:57;;;;;;;;;;;;;;;21.67;51.97;102375.69;4994320;28;20037;-71
2021/07/19 10:31:23;;;;;;;8.20;5.90;;;;;;;21.62;52.22;102383.56;4994188;28;19914;-71
2021/07/19 10:33:51;;;;;;;10.15;7.25;;;;;;;21.46;52.77;102370.28;4976176;28;20038;-71
2021/07/19 10:36:24;;;;;;;7.25;5.72;;;;;;;21.32;52.91;102365.78;4975551;28;20045;-71
2021/07/19 10:38:53;;;;;;;8.98;6.60;;;;;;;21.60;52.27;102366.88;4974304;28;20043;-72
2021/07/19 10:41:22;;;;;;;11.23;6.55;;;;;;;21.62;51.71;102361.63;4957573;28;20046;-72
2021/07/19 10:43:58;;;;;;;10.05;6.70;;;;;;;21.56;51.91;102362.44;4974530;28;20396;-71
2021/07/19 10:46:26;;;;;;;9.15;6.43;;;;;;;21.48;51.56;102358.91;4974363;28;20508;-71
2021/07/19 10:49:09;;;;;;;11.30;5.80;;;;;;;21.65;51.88;102359.00;4974330;28;20107;-73
2021/07/19 10:51:44;;;;;;;12.67;6.53;;;;;;;22.13;50.71;102350.47;4974227;28;20033;-70
2021/07/19 10:54:19;;;;;;;9.50;7.10;;;;;;;21.93;50.57;102346.88;4941893;28;19914;-71
2021/07/19 10:56:45;;;;;;;;;;;;;;;21.71;50.67;102359.03;4974799;28;20323;-71
2021/07/19 10:59:21;;;;;;;;;;;;;;;21.58;51.09;102359.81;4974360;28;20052;-70
2021/07/19 11:01:57;;;;;;;7.50;5.00;;;;;;;21.59;49.92;102357.22;4974220;28;19925;-70
2021/07/19 11:04:23;;;;;;;;;;;;;;;21.76;49.21;102354.69;4957160;28;19921;-71
2021/07/19 11:06:56;;;;;;;7.32;6.22;;;;;;;21.73;49.76;102345.00;4974066;28;19945;-70
2021/07/19 11:09:35;;;;;;;6.85;5.30;;;;;;;22.08;50.33;102349.56;4957885;28;20031;-70
2021/07/19 11:12:12;;;;;;;8.20;5.38;;;;;;;21.73;50.78;102350.28;4974089;28;20042;-70
2021/07/19 11:14:43;;;;;;;10.55;6.90;;;;;;;21.71;51.93;102354.63;4976877;28;20385;-70
2021/07/19 11:17:10;;;;;;;7.82;5.88;;;;;;;21.70;52.18;102344.09;4960421;28;20030;-70
2021/07/19 11:19:42;;;;;;;13.70;7.28;;;;;;;21.65;51.89;102352.00;4978132;28;20035;-70
2021/07/19 11:22:10;;;;;;;8.77;6.85;;;;;;;21.31;51.93;102347.34;4977332;28;20031;-70
2021/07/19 11:24:44;;;;;;;8.38;6.35;;;;;;;21.41;51.74;102346.56;4960028;28;20477;-70
2021/07/19 11:27:10;;;;;;;;;;;;;;;21.71;51.15;102341.47;4977725;28;20596;-70
2021/07/19 11:29:38;;;;;;;9.30;6.80;;;;;;;21.55;51.98;102350.16;4960190;28;20005;-70
2021/07/19 11:32:13;;;;;;;9.10;6.35;;;;;;;21.44;52.44;102343.06;4960029;28;20503;-70